createdAt,value
2018-03-29T00:00:21.968Z,92.60
2018-03-29T00:02:49.531Z,92.60
2018-03-29T00:05:17.047Z,92.60
2018-03-29T00:07:44.617Z,92.50
2018-03-29T00:10:12.128Z,92.50
2018-03-29T00:12:39.661Z,92.70
2018-03-29T00:15:07.950Z,92.70
2018-03-29T00:17:35.590Z,92.70
2018-03-29T00:20:03.114Z,92.80
2018-03-29T00:22:30.805Z,92.80
2018-03-29T00:24:59.166Z,92.70
2018-03-29T00:27:26.734Z,92.70
2018-03-29T00:29:54.538Z,92.80
2018-03-29T00:32:22.090Z,92.80
2018-03-29T00:34:49.637Z,92.90
2018-03-29T00:37:17.188Z,93.00
2018-03-29T00:39:44.729Z,92.90
2018-03-29T00:42:12.251Z,92.70
2018-03-29T00:44:39.833Z,93.10
2018-03-29T00:47:07.361Z,92.80
2018-03-29T00:49:35.904Z,93.00
2018-03-29T00:52:03.485Z,93.10
2018-03-29T00:54:31.080Z,93.10
2018-03-29T00:57:00.415Z,93.00
2018-03-29T00:59:27.971Z,93.00
2018-03-29T01:01:55.523Z,93.10
2018-03-29T01:04:23.076Z,93.10
2018-03-29T01:06:50.618Z,93.10
2018-03-29T01:09:18.173Z,93.20
2018-03-29T01:11:45.700Z,93.00
2018-03-29T01:14:13.394Z,93.10
2018-03-29T01:16:40.931Z,92.80
2018-03-29T01:19:08.508Z,92.90
2018-03-29T01:21:36.059Z,93.10
2018-03-29T01:24:03.585Z,93.20
2018-03-29T01:26:31.259Z,93.20
2018-03-29T01:28:58.823Z,93.30
2018-03-29T01:31:27.147Z,93.20
2018-03-29T01:33:54.708Z,93.20
2018-03-29T01:36:22.231Z,93.30
2018-03-29T01:38:49.764Z,93.20
2018-03-29T01:41:17.287Z,93.20
2018-03-29T01:43:45.606Z,93.40
2018-03-29T01:46:13.124Z,93.40
2018-03-29T01:48:40.654Z,93.50
2018-03-29T01:51:08.179Z,93.50
2018-03-29T01:53:36.478Z,93.10
2018-03-29T01:56:04.776Z,93.10
2018-03-29T01:58:32.336Z,93.10
2018-03-29T02:01:01.424Z,93.50
2018-03-29T02:03:28.942Z,93.50
2018-03-29T02:05:56.461Z,93.50
2018-03-29T02:08:23.971Z,93.50
2018-03-29T02:10:52.480Z,93.40
2018-03-29T02:13:20.115Z,93.40
2018-03-29T02:15:47.646Z,93.40
2018-03-29T02:18:15.180Z,93.30
2018-03-29T02:20:42.714Z,93.40
2018-03-29T02:23:10.246Z,93.50
2018-03-29T02:25:38.560Z,93.40
2018-03-29T02:28:06.086Z,93.40
2018-03-29T02:30:33.628Z,93.50
2018-03-29T02:33:01.234Z,93.50
2018-03-29T02:35:28.783Z,93.50
2018-03-29T02:37:57.067Z,93.60
2018-03-29T02:40:24.650Z,93.50
2018-03-29T02:42:52.201Z,93.50
2018-03-29T02:45:19.718Z,93.40
2018-03-29T02:47:47.252Z,93.50
2018-03-29T02:50:14.765Z,93.50
2018-03-29T02:52:43.082Z,93.70
2018-03-29T02:55:10.617Z,93.60
2018-03-29T02:57:38.171Z,93.70
2018-03-29T03:00:05.691Z,93.60
2018-03-29T03:02:33.229Z,93.60
2018-03-29T03:05:00.767Z,93.70
2018-03-29T03:07:28.309Z,93.80
2018-03-29T03:09:55.988Z,93.90
2018-03-29T03:12:24.696Z,93.90
2018-03-29T03:14:53.010Z,93.90
2018-03-29T03:17:20.534Z,93.90
2018-03-29T03:19:48.075Z,93.90
2018-03-29T03:22:16.372Z,93.80
2018-03-29T03:24:44.128Z,93.80
2018-03-29T03:27:11.661Z,93.80
2018-03-29T03:29:39.196Z,93.80
2018-03-29T03:32:06.825Z,93.70
2018-03-29T03:34:35.157Z,93.50
2018-03-29T03:37:02.785Z,93.50
2018-03-29T03:39:31.174Z,93.40
2018-03-29T03:41:58.684Z,93.60
2018-03-29T03:44:26.223Z,93.10
2018-03-29T03:46:53.937Z,93.10
2018-03-29T03:49:21.517Z,92.90
2018-03-29T03:51:49.051Z,92.80
2018-03-29T03:54:16.607Z,92.50
2018-03-29T03:56:44.141Z,92.50
2018-03-29T03:59:11.652Z,92.30
2018-03-29T04:01:39.957Z,91.80
2018-03-29T04:04:07.471Z,91.70
2018-03-29T04:06:35.041Z,91.70
2018-03-29T04:09:03.584Z,91.60
2018-03-29T04:11:31.124Z,91.70
2018-03-29T04:13:58.642Z,91.70
2018-03-29T04:16:26.168Z,91.50
2018-03-29T04:18:53.707Z,91.30
2018-03-29T04:21:21.263Z,90.70
2018-03-29T04:23:48.817Z,90.30
2018-03-29T04:26:17.103Z,88.00
2018-03-29T04:28:45.409Z,87.20
2018-03-29T04:31:12.932Z,87.10
2018-03-29T04:33:40.475Z,86.90
2018-03-29T04:36:07.987Z,86.60
2018-03-29T04:38:36.283Z,86.30
2018-03-29T04:41:04.073Z,86.40
2018-03-29T04:43:32.509Z,85.80
2018-03-29T04:46:00.023Z,85.90
2018-03-29T04:48:27.541Z,86.60
2018-03-29T04:50:55.839Z,87.10
2018-03-29T04:53:23.384Z,87.00
2018-03-29T04:55:50.938Z,87.80
2018-03-29T04:58:18.462Z,88.50
2018-03-29T05:00:45.987Z,88.60
2018-03-29T05:03:14.317Z,87.40
2018-03-29T05:05:42.628Z,86.60
2018-03-29T05:08:10.157Z,86.60
2018-03-29T05:10:38.482Z,86.10
2018-03-29T05:13:06.005Z,86.00
2018-03-29T05:15:33.556Z,86.10
2018-03-29T05:18:01.078Z,85.90
2018-03-29T05:20:28.602Z,85.80
2018-03-29T05:22:56.885Z,85.70
2018-03-29T05:25:24.740Z,85.60
2018-03-29T05:27:54.174Z,86.00
2018-03-29T05:30:21.686Z,85.80
2018-03-29T05:32:49.216Z,86.10
2018-03-29T05:35:16.755Z,86.00
2018-03-29T05:37:44.293Z,85.80
2018-03-29T05:40:11.849Z,85.70
2018-03-29T05:42:39.427Z,85.40
2018-03-29T05:45:06.944Z,84.70
2018-03-29T05:47:34.484Z,84.30
2018-03-29T05:50:01.991Z,84.10
2018-03-29T05:52:30.283Z,84.10
2018-03-29T05:54:57.795Z,84.10
2018-03-29T05:57:26.103Z,83.50
2018-03-29T05:59:53.606Z,83.50
2018-03-29T06:02:21.895Z,83.30
2018-03-29T06:04:49.480Z,83.30
2018-03-29T06:07:17.309Z,82.90
2018-03-29T06:09:44.881Z,82.80
2018-03-29T06:12:13.160Z,83.30
2018-03-29T06:14:45.321Z,83.30
2018-03-29T06:17:19.206Z,83.30
2018-03-29T06:19:47.506Z,83.90
2018-03-29T06:22:15.021Z,83.90
2018-03-29T06:24:42.549Z,84.00
2018-03-29T06:27:10.984Z,84.00
2018-03-29T06:29:39.314Z,83.60
2018-03-29T06:32:06.856Z,83.60
2018-03-29T06:34:34.444Z,83.60
2018-03-29T06:37:02.820Z,83.60
2018-03-29T06:39:30.336Z,83.60
2018-03-29T06:41:57.865Z,83.30
2018-03-29T06:44:25.391Z,82.80
2018-03-29T06:46:52.914Z,83.00
2018-03-29T06:49:21.198Z,83.10
2018-03-29T06:51:48.725Z,83.10
2018-03-29T06:54:18.045Z,82.20
2018-03-29T06:56:45.577Z,82.20
2018-03-29T06:59:13.101Z,82.10
2018-03-29T07:01:41.391Z,81.80
2018-03-29T07:04:08.963Z,81.80
2018-03-29T07:06:36.498Z,82.30
2018-03-29T07:09:04.058Z,81.80
2018-03-29T07:11:31.578Z,81.40
2018-03-29T07:13:59.105Z,81.70
2018-03-29T07:16:26.617Z,81.30
2018-03-29T07:18:54.922Z,80.90
2018-03-29T07:21:22.434Z,80.80
2018-03-29T07:23:50.757Z,80.40
2018-03-29T07:26:18.288Z,80.30
2018-03-29T07:28:45.880Z,80.40
2018-03-29T07:31:13.474Z,79.60
2018-03-29T07:33:41.013Z,79.20
2018-03-29T07:36:08.602Z,79.80
2018-03-29T07:38:36.123Z,79.40
2018-03-29T07:41:03.697Z,79.60
2018-03-29T07:43:31.982Z,79.40
2018-03-29T07:45:59.514Z,79.40
2018-03-29T07:48:27.036Z,79.00
2018-03-29T07:50:55.344Z,78.30
2018-03-29T07:53:22.878Z,78.30
2018-03-29T07:55:51.180Z,78.10
2018-03-29T07:58:18.684Z,78.10
2018-03-29T08:00:46.235Z,78.30
2018-03-29T08:03:13.756Z,77.60
2018-03-29T08:05:41.287Z,77.20
2018-03-29T08:08:08.828Z,77.10
2018-03-29T08:10:36.340Z,77.20
2018-03-29T08:13:03.867Z,76.70
2018-03-29T08:15:31.380Z,76.90
2018-03-29T08:17:58.965Z,76.50
2018-03-29T08:20:26.497Z,76.40
2018-03-29T08:22:54.040Z,75.90
2018-03-29T08:25:21.581Z,76.20
2018-03-29T08:27:49.121Z,76.10
2018-03-29T08:30:16.627Z,76.00
2018-03-29T08:32:44.928Z,76.60
2018-03-29T08:35:12.436Z,76.60
2018-03-29T08:37:40.748Z,76.80
2018-03-29T08:40:08.260Z,76.60
2018-03-29T08:42:35.764Z,76.10
2018-03-29T08:45:03.288Z,76.40
2018-03-29T08:47:30.804Z,75.40
2018-03-29T08:49:58.434Z,74.70
2018-03-29T08:52:25.956Z,75.70
2018-03-29T08:54:54.280Z,76.00
2018-03-29T08:57:21.795Z,75.90
2018-03-29T08:59:49.312Z,76.50
2018-03-29T09:02:16.915Z,75.60
2018-03-29T09:04:44.466Z,75.60
2018-03-29T09:07:11.975Z,75.20
2018-03-29T09:09:39.541Z,75.60
2018-03-29T09:12:07.056Z,74.80
2018-03-29T09:14:34.599Z,75.00
2018-03-29T09:17:02.136Z,74.10
2018-03-29T09:19:30.407Z,72.30
2018-03-29T09:21:57.986Z,72.20
2018-03-29T09:24:25.532Z,71.60
2018-03-29T09:26:55.658Z,71.30
2018-03-29T09:29:24.409Z,70.60
2018-03-29T09:31:51.941Z,70.60
2018-03-29T09:34:19.459Z,70.50
2018-03-29T09:36:46.997Z,69.10
2018-03-29T09:39:14.534Z,68.70
2018-03-29T09:41:42.812Z,68.70
2018-03-29T09:44:11.089Z,68.70
2018-03-29T09:46:38.595Z,68.60
2018-03-29T09:49:06.923Z,67.70
2018-03-29T09:51:34.431Z,67.80
2018-03-29T09:54:01.985Z,69.00
2018-03-29T09:56:29.560Z,69.80
2018-03-29T09:58:57.081Z,69.50
2018-03-29T10:01:24.613Z,69.50
2018-03-29T10:03:52.912Z,68.50
2018-03-29T10:06:26.129Z,68.00
2018-03-29T10:08:53.738Z,68.40
2018-03-29T10:11:21.253Z,68.40
2018-03-29T10:13:48.790Z,68.00
2018-03-29T10:16:16.334Z,66.70
2018-03-29T10:18:43.996Z,65.80
2018-03-29T10:21:11.974Z,65.90
2018-03-29T10:23:39.516Z,65.60
2018-03-29T10:26:07.151Z,65.90
2018-03-29T10:28:34.663Z,65.70
2018-03-29T10:31:02.261Z,65.30
2018-03-29T10:33:29.822Z,64.60
2018-03-29T10:35:58.237Z,63.50
2018-03-29T10:38:25.761Z,63.50
2018-03-29T10:40:54.143Z,62.40
2018-03-29T10:43:21.664Z,62.40
2018-03-29T10:45:49.169Z,61.80
2018-03-29T10:48:16.697Z,61.20
2018-03-29T10:50:44.258Z,62.70
2018-03-29T10:53:13.569Z,62.90
2018-03-29T10:55:41.101Z,62.90
2018-03-29T10:58:09.423Z,64.90
2018-03-29T11:00:36.994Z,64.90
2018-03-29T11:03:05.295Z,65.80
2018-03-29T11:05:32.965Z,65.30
2018-03-29T11:08:00.506Z,65.30
2018-03-29T11:10:28.058Z,64.60
2018-03-29T11:12:55.567Z,64.10
2018-03-29T11:15:23.090Z,63.60
2018-03-29T11:17:51.385Z,63.70
2018-03-29T11:20:19.053Z,63.60
2018-03-29T11:22:46.567Z,63.00
2018-03-29T11:25:14.140Z,63.10
2018-03-29T11:27:41.684Z,62.50
2018-03-29T11:30:09.200Z,62.00
2018-03-29T11:32:36.762Z,62.50
2018-03-29T11:35:04.319Z,63.00
2018-03-29T11:37:31.865Z,63.10
2018-03-29T11:39:59.395Z,62.70
2018-03-29T11:42:26.931Z,62.50
2018-03-29T11:44:54.439Z,62.30
2018-03-29T11:47:22.736Z,61.80
2018-03-29T11:49:50.261Z,61.40
2018-03-29T11:52:17.774Z,60.90
2018-03-29T11:54:45.317Z,59.90
2018-03-29T11:57:13.765Z,59.70
2018-03-29T11:59:41.307Z,59.30
2018-03-29T12:02:08.849Z,58.80
2018-03-29T12:04:36.376Z,58.80
2018-03-29T12:07:04.341Z,58.00
2018-03-29T12:09:31.879Z,57.80
2018-03-29T12:11:59.409Z,58.60
2018-03-29T12:14:27.181Z,58.80
2018-03-29T12:16:54.706Z,59.40
2018-03-29T12:19:22.369Z,60.30
2018-03-29T12:21:49.913Z,62.80
2018-03-29T12:24:17.471Z,64.20
2018-03-29T12:26:45.004Z,64.20
2018-03-29T12:29:12.523Z,64.90
2018-03-29T12:31:40.057Z,64.90
2018-03-29T12:34:07.585Z,64.40
2018-03-29T12:36:35.888Z,63.70
2018-03-29T12:39:03.395Z,63.70
2018-03-29T12:41:31.768Z,63.00
2018-03-29T12:43:59.301Z,63.00
2018-03-29T12:46:27.587Z,61.90
2018-03-29T12:48:55.103Z,61.90
2018-03-29T12:51:23.414Z,60.30
2018-03-29T12:53:50.960Z,60.20
2018-03-29T12:56:21.359Z,60.60
2018-03-29T12:58:48.877Z,60.40
2018-03-29T13:01:16.436Z,58.90
2018-03-29T13:03:44.005Z,58.10
2018-03-29T13:06:11.654Z,57.90
2018-03-29T13:08:39.173Z,57.80
2018-03-29T13:11:06.770Z,57.50
2018-03-29T13:13:35.081Z,57.60
2018-03-29T13:16:02.612Z,57.60
2018-03-29T13:18:30.124Z,58.00
2018-03-29T13:20:57.650Z,58.50
2018-03-29T13:23:25.170Z,59.10
2018-03-29T13:25:52.699Z,59.50
2018-03-29T13:28:20.210Z,60.50
2018-03-29T13:30:48.603Z,60.20
2018-03-29T13:33:16.599Z,60.20
2018-03-29T13:35:44.228Z,59.70
2018-03-29T13:38:12.571Z,59.40
2018-03-29T13:40:40.102Z,59.40
2018-03-29T13:43:07.645Z,59.10
2018-03-29T13:45:35.164Z,58.80
2018-03-29T13:48:03.455Z,58.20
2018-03-29T13:50:30.975Z,58.20
2018-03-29T13:52:59.332Z,58.00
2018-03-29T13:55:26.857Z,57.80
2018-03-29T13:57:54.480Z,57.80
2018-03-29T14:00:22.106Z,57.90
2018-03-29T14:02:49.757Z,57.80
2018-03-29T14:05:17.337Z,57.60
2018-03-29T14:07:44.919Z,58.00
2018-03-29T14:10:12.518Z,57.90
2018-03-29T14:12:40.076Z,57.60
2018-03-29T14:15:07.590Z,57.80
2018-03-29T14:17:36.044Z,57.90
2018-03-29T14:20:03.594Z,57.90
2018-03-29T14:22:31.131Z,58.10
2018-03-29T14:24:58.727Z,58.10
2018-03-29T14:27:26.283Z,58.60
2018-03-29T14:29:54.603Z,58.70
2018-03-29T14:32:22.107Z,58.10
2018-03-29T14:34:50.410Z,57.60
2018-03-29T14:37:18.868Z,57.70
2018-03-29T14:39:46.412Z,57.70
2018-03-29T14:42:14.067Z,57.90
2018-03-29T14:44:41.603Z,57.40
2018-03-29T14:47:09.335Z,57.50
2018-03-29T14:49:36.868Z,58.20
2018-03-29T14:52:04.428Z,58.50
2018-03-29T14:54:31.951Z,58.20
2018-03-29T14:57:00.257Z,57.50
2018-03-29T14:59:27.848Z,57.00
2018-03-29T15:01:56.140Z,56.20
2018-03-29T15:04:23.671Z,56.20
2018-03-29T15:06:51.205Z,55.90
2018-03-29T15:09:19.313Z,56.40
2018-03-29T15:11:46.851Z,55.80
2018-03-29T15:14:14.409Z,54.90
2018-03-29T15:16:41.923Z,54.50
2018-03-29T15:19:09.471Z,55.10
2018-03-29T15:21:36.984Z,55.80
2018-03-29T15:24:05.420Z,56.10
2018-03-29T15:26:33.038Z,56.10
2018-03-29T15:29:00.683Z,56.30
2018-03-29T15:31:28.203Z,56.60
2018-03-29T15:33:55.748Z,56.90
2018-03-29T15:36:23.275Z,56.70
2018-03-29T15:38:50.825Z,55.90
2018-03-29T15:41:18.358Z,56.00
2018-03-29T15:43:45.951Z,54.50
2018-03-29T15:46:13.497Z,54.30
2018-03-29T15:48:41.027Z,55.00
2018-03-29T15:51:08.551Z,55.70
2018-03-29T15:53:36.131Z,55.70
2018-03-29T15:56:03.643Z,56.30
2018-03-29T15:58:31.217Z,56.70
2018-03-29T16:00:58.759Z,56.90
2018-03-29T16:03:26.286Z,56.50
2018-03-29T16:05:53.821Z,56.30
2018-03-29T16:08:21.394Z,56.40
2018-03-29T16:10:48.919Z,56.60
2018-03-29T16:13:16.507Z,56.70
2018-03-29T16:15:44.037Z,57.20
2018-03-29T16:18:11.609Z,57.60
2018-03-29T16:20:39.116Z,57.80
2018-03-29T16:23:06.652Z,57.80
2018-03-29T16:25:34.171Z,58.30
2018-03-29T16:28:01.712Z,57.90
2018-03-29T16:30:29.228Z,57.90
2018-03-29T16:32:56.835Z,58.30
2018-03-29T16:35:24.378Z,57.90
2018-03-29T16:37:51.903Z,58.50
2018-03-29T16:40:19.478Z,59.20
2018-03-29T16:42:47.051Z,59.70
2018-03-29T16:45:14.619Z,60.00
2018-03-29T16:47:42.922Z,60.40
2018-03-29T16:50:10.457Z,60.40
2018-03-29T16:52:38.113Z,60.50
2018-03-29T16:55:05.639Z,60.60
2018-03-29T16:57:33.165Z,60.90
2018-03-29T17:00:00.714Z,60.90
2018-03-29T17:02:28.243Z,60.70
2018-03-29T17:04:56.558Z,60.80
2018-03-29T17:07:24.099Z,60.80
2018-03-29T17:09:51.668Z,63.30
2018-03-29T17:12:19.982Z,66.20
2018-03-29T17:14:47.522Z,66.20
2018-03-29T17:17:15.173Z,67.30
2018-03-29T17:19:42.714Z,68.20
2018-03-29T17:22:10.357Z,69.70
2018-03-29T17:24:37.920Z,69.50
2018-03-29T17:27:05.442Z,69.90
2018-03-29T17:29:32.987Z,71.20
2018-03-29T17:32:00.525Z,71.00
2018-03-29T17:34:28.086Z,71.80
2018-03-29T17:36:55.610Z,72.50
2018-03-29T17:39:23.917Z,73.50
2018-03-29T17:41:51.445Z,73.60
2018-03-29T17:44:19.059Z,74.20
2018-03-29T17:46:46.657Z,74.60
2018-03-29T17:49:14.188Z,75.40
2018-03-29T17:51:41.717Z,76.10
2018-03-29T17:54:09.264Z,76.70
2018-03-29T17:56:36.792Z,77.10
2018-03-29T17:59:04.331Z,77.00
2018-03-29T18:01:31.861Z,77.10
2018-03-29T18:04:00.162Z,77.30
2018-03-29T18:06:27.698Z,77.20
2018-03-29T18:08:55.251Z,77.50
2018-03-29T18:11:22.789Z,77.70
2018-03-29T18:13:50.319Z,77.80
2018-03-29T18:16:17.847Z,78.20
2018-03-29T18:18:46.175Z,78.00
2018-03-29T18:21:13.910Z,78.00
2018-03-29T18:23:41.446Z,77.80
2018-03-29T18:26:09.026Z,77.90
2018-03-29T18:28:36.533Z,77.40
2018-03-29T18:31:04.098Z,77.40
2018-03-29T18:33:31.631Z,77.50
2018-03-29T18:35:59.189Z,77.20
2018-03-29T18:38:26.827Z,77.20
2018-03-29T18:40:54.358Z,77.40
2018-03-29T18:43:21.887Z,78.10
2018-03-29T18:45:49.462Z,77.30
2018-03-29T18:48:16.986Z,77.20
2018-03-29T18:50:44.525Z,77.20
2018-03-29T18:53:12.032Z,76.90
2018-03-29T18:55:40.379Z,76.80
2018-03-29T18:58:07.922Z,76.80
2018-03-29T19:00:36.290Z,76.20
2018-03-29T19:03:03.915Z,76.30
2018-03-29T19:05:31.440Z,75.80
2018-03-29T19:07:59.004Z,76.00
2018-03-29T19:10:26.548Z,75.80
2018-03-29T19:12:54.115Z,75.40
2018-03-29T19:15:21.657Z,75.20
2018-03-29T19:17:49.250Z,75.20
2018-03-29T19:20:16.808Z,74.60
2018-03-29T19:22:44.333Z,74.80
2018-03-29T19:25:11.878Z,75.00
2018-03-29T19:27:39.420Z,74.90
2018-03-29T19:30:07.090Z,75.40
2018-03-29T19:32:34.615Z,75.60
2018-03-29T19:35:02.208Z,75.80
2018-03-29T19:37:29.752Z,76.60
2018-03-29T19:39:57.536Z,76.40
2018-03-29T19:42:25.273Z,76.50
2018-03-29T19:44:53.578Z,77.20
2018-03-29T19:47:21.091Z,77.20
2018-03-29T19:49:48.834Z,77.50
2018-03-29T19:52:16.356Z,77.30
2018-03-29T19:54:44.667Z,77.50
2018-03-29T19:57:12.868Z,77.50
2018-03-29T19:59:41.893Z,77.40
2018-03-29T20:02:09.433Z,77.50
2018-03-29T20:04:36.947Z,77.10
2018-03-29T20:07:04.469Z,77.00
2018-03-29T20:09:32.049Z,76.70
2018-03-29T20:12:00.360Z,76.50
2018-03-29T20:14:27.876Z,76.50
2018-03-29T20:16:55.465Z,76.30
2018-03-29T20:19:22.973Z,76.20
2018-03-29T20:21:50.521Z,75.90
2018-03-29T20:24:18.060Z,76.50
2018-03-29T20:26:45.630Z,77.10
2018-03-29T20:29:13.200Z,77.90
2018-03-29T20:31:40.744Z,78.40
2018-03-29T20:34:08.295Z,78.70
2018-03-29T20:36:35.830Z,78.80
2018-03-29T20:39:03.352Z,79.20
2018-03-29T20:41:30.906Z,79.20
2018-03-29T20:43:58.427Z,79.40
2018-03-29T20:46:26.016Z,79.50
2018-03-29T20:48:54.335Z,79.20
2018-03-29T20:51:21.925Z,79.20
2018-03-29T20:53:49.461Z,79.70
2018-03-29T20:56:17.008Z,79.40
2018-03-29T20:58:44.651Z,80.50
2018-03-29T21:01:12.185Z,79.80
2018-03-29T21:03:39.720Z,80.40
2018-03-29T21:06:07.250Z,80.50
2018-03-29T21:08:34.788Z,81.00
2018-03-29T21:11:02.300Z,81.40
2018-03-29T21:13:30.913Z,81.20
2018-03-29T21:15:59.243Z,81.30
2018-03-29T21:18:26.794Z,81.30
2018-03-29T21:20:54.464Z,81.20
2018-03-29T21:23:22.075Z,80.70
2018-03-29T21:25:50.363Z,80.80
2018-03-29T21:28:17.916Z,80.70
2018-03-29T21:30:45.450Z,80.90
2018-03-29T21:33:12.992Z,80.80
2018-03-29T21:35:40.514Z,80.60
2018-03-29T21:38:08.044Z,80.70
2018-03-29T21:40:36.335Z,80.70
2018-03-29T21:43:03.901Z,80.70
2018-03-29T21:45:31.412Z,81.30
2018-03-29T21:47:58.974Z,81.70
2018-03-29T21:50:26.536Z,81.90
2018-03-29T21:52:54.162Z,81.90
2018-03-29T21:55:21.724Z,82.40
2018-03-29T21:57:49.309Z,82.90
2018-03-29T22:00:17.599Z,83.30
2018-03-29T22:02:45.193Z,83.40
2018-03-29T22:05:12.741Z,83.00
2018-03-29T22:07:40.313Z,83.00
2018-03-29T22:10:08.613Z,83.30
2018-03-29T22:12:36.179Z,83.30
2018-03-29T22:15:04.049Z,83.70
2018-03-29T22:17:31.674Z,83.50
2018-03-29T22:19:59.195Z,83.50
2018-03-29T22:22:26.728Z,83.30
2018-03-29T22:24:54.258Z,83.40
2018-03-29T22:27:22.566Z,83.40
2018-03-29T22:29:50.109Z,83.40
2018-03-29T22:32:23.593Z,83.50
2018-03-29T22:34:51.132Z,83.70
2018-03-29T22:37:18.654Z,83.70
2018-03-29T22:39:46.202Z,83.90
2018-03-29T22:42:13.719Z,84.10
2018-03-29T22:44:42.034Z,83.60
2018-03-29T22:47:09.551Z,83.50
2018-03-29T22:49:37.087Z,83.60
2018-03-29T22:52:04.663Z,83.50
2018-03-29T22:54:32.188Z,83.70
2018-03-29T22:56:59.740Z,84.10
2018-03-29T22:59:27.267Z,84.80
2018-03-29T23:01:54.812Z,84.70
2018-03-29T23:04:22.348Z,85.20
2018-03-29T23:06:49.881Z,85.50
2018-03-29T23:09:18.190Z,86.20
2018-03-29T23:11:45.751Z,86.20
2018-03-29T23:14:13.430Z,86.00
2018-03-29T23:16:41.735Z,86.50
2018-03-29T23:19:09.271Z,86.50
2018-03-29T23:21:36.811Z,86.70
2018-03-29T23:24:04.494Z,86.70
2018-03-29T23:26:32.026Z,86.30
2018-03-29T23:28:59.566Z,86.00
2018-03-29T23:31:27.084Z,85.60
2018-03-29T23:33:54.666Z,85.40
2018-03-29T23:36:22.204Z,85.20
2018-03-29T23:38:49.755Z,85.00
2018-03-29T23:41:17.294Z,84.90
2018-03-29T23:43:44.853Z,84.40
2018-03-29T23:46:12.380Z,84.20
2018-03-29T23:48:39.998Z,83.80
2018-03-29T23:51:07.521Z,84.00
2018-03-29T23:53:35.811Z,83.90
2018-03-29T23:56:03.346Z,83.90
2018-03-29T23:58:30.885Z,83.80
